sensor_id;sensor_type;location;lat;lon;timestamp;P1;durP1;ratioP1;P2;durP2;ratioP2
44973;SDS011;60981;50.720;11.342;2023-07-20T00:01:13;4.90;;;2.60;;
44973;SDS011;60981;50.720;11.342;2023-07-20T00:02:15;4.28;;;2.70;;
44973;SDS011;60981;50.720;11.342;2023-07-20T00:03:17;4.75;;;2.45;;
44973;SDS011;60981;50.720;11.342;2023-07-20T00:04:20;6.13;;;2.63;;
44973;SDS011;60981;50.720;11.342;2023-07-20T00:05:22;5.30;;;2.75;;
44973;SDS011;60981;50.720;11.342;2023-07-20T00:06:26;4.15;;;2.58;;
44973;SDS011;60981;50.720;11.342;2023-07-20T00:07:29;5.30;;;2.50;;
44973;SDS011;60981;50.720;11.342;2023-07-20T00:08:30;4.45;;;2.47;;
44973;SDS011;60981;50.720;11.342;2023-07-20T00:09:33;5.93;;;2.70;;
44973;SDS011;60981;50.720;11.342;2023-07-20T00:10:35;5.28;;;2.60;;
44973;SDS011;60981;50.720;11.342;2023-07-20T00:11:37;5.20;;;2.83;;
44973;SDS011;60981;50.720;11.342;2023-07-20T00:12:39;5.63;;;3.17;;
44973;SDS011;60981;50.720;11.342;2023-07-20T00:13:41;6.10;;;3.00;;
44973;SDS011;60981;50.720;11.342;2023-07-20T00:14:42;4.45;;;3.00;;
44973;SDS011;60981;50.720;11.342;2023-07-20T00:15:44;7.22;;;3.35;;
44973;SDS011;60981;50.720;11.342;2023-07-20T00:16:46;5.45;;;2.97;;
44973;SDS011;60981;50.720;11.342;2023-07-20T00:17:48;5.40;;;2.90;;
44973;SDS011;60981;50.720;11.342;2023-07-20T00:18:49;5.65;;;3.17;;
44973;SDS011;60981;50.720;11.342;2023-07-20T00:19:51;5.32;;;3.45;;
44973;SDS011;60981;50.720;11.342;2023-07-20T00:20:53;5.72;;;3.53;;
44973;SDS011;60981;50.720;11.342;2023-07-20T00:21:55;5.00;;;3.10;;
44973;SDS011;60981;50.720;11.342;2023-07-20T00:22:57;5.47;;;2.97;;
44973;SDS011;60981;50.720;11.342;2023-07-20T00:23:59;5.55;;;3.45;;
44973;SDS011;60981;50.720;11.342;2023-07-20T00:25:01;5.45;;;3.00;;
44973;SDS011;60981;50.720;11.342;2023-07-20T00:26:03;6.80;;;3.35;;
44973;SDS011;60981;50.720;11.342;2023-07-20T00:27:05;5.22;;;3.05;;
44973;SDS011;60981;50.720;11.342;2023-07-20T00:28:07;6.57;;;3.40;;
44973;SDS011;60981;50.720;11.342;2023-07-20T00:29:08;7.07;;;3.35;;
44973;SDS011;60981;50.720;11.342;2023-07-20T00:30:10;6.15;;;3.10;;
44973;SDS011;60981;50.720;11.342;2023-07-20T00:31:12;5.35;;;3.10;;
44973;SDS011;60981;50.720;11.342;2023-07-20T00:32:14;7.18;;;3.47;;
44973;SDS011;60981;50.720;11.342;2023-07-20T00:33:16;3.92;;;2.90;;
44973;SDS011;60981;50.720;11.342;2023-07-20T00:34:18;6.10;;;3.63;;
44973;SDS011;60981;50.720;11.342;2023-07-20T00:35:20;6.13;;;3.03;;
44973;SDS011;60981;50.720;11.342;2023-07-20T00:36:22;6.00;;;3.30;;
44973;SDS011;60981;50.720;11.342;2023-07-20T00:37:24;6.38;;;3.13;;
44973;SDS011;60981;50.720;11.342;2023-07-20T00:38:26;5.55;;;2.80;;
44973;SDS011;60981;50.720;11.342;2023-07-20T00:39:27;4.45;;;2.92;;
44973;SDS011;60981;50.720;11.342;2023-07-20T00:40:35;4.90;;;2.95;;
44973;SDS011;60981;50.720;11.342;2023-07-20T00:41:37;4.97;;;2.92;;
44973;SDS011;60981;50.720;11.342;2023-07-20T00:42:39;4.93;;;3.07;;
44973;SDS011;60981;50.720;11.342;2023-07-20T00:43:41;4.80;;;2.78;;
44973;SDS011;60981;50.720;11.342;2023-07-20T00:44:42;4.80;;;3.00;;
44973;SDS011;60981;50.720;11.342;2023-07-20T00:45:44;4.70;;;3.20;;
44973;SDS011;60981;50.720;11.342;2023-07-20T00:46:46;6.20;;;3.00;;
44973;SDS011;60981;50.720;11.342;2023-07-20T00:47:48;7.68;;;3.40;;
44973;SDS011;60981;50.720;11.342;2023-07-20T00:48:49;5.35;;;3.30;;
44973;SDS011;60981;50.720;11.342;2023-07-20T00:49:51;7.15;;;3.45;;
44973;SDS011;60981;50.720;11.342;2023-07-20T00:50:53;5.10;;;3.72;;
44973;SDS011;60981;50.720;11.342;2023-07-20T00:51:55;7.60;;;3.40;;
44973;SDS011;60981;50.720;11.342;2023-07-20T00:52:57;6.35;;;3.60;;
44973;SDS011;60981;50.720;11.342;2023-07-20T00:53:59;5.82;;;3.47;;
44973;SDS011;60981;50.720;11.342;2023-07-20T00:55:01;5.00;;;3.30;;
44973;SDS011;60981;50.720;11.342;2023-07-20T00:56:03;5.90;;;3.67;;
44973;SDS011;60981;50.720;11.342;2023-07-20T00:57:05;6.30;;;3.28;;
44973;SDS011;60981;50.720;11.342;2023-07-20T00:58:08;4.38;;;2.97;;
44973;SDS011;60981;50.720;11.342;2023-07-20T00:59:11;5.65;;;3.55;;
44973;SDS011;60981;50.720;11.342;2023-07-20T01:00:12;7.68;;;3.95;;
44973;SDS011;60981;50.720;11.342;2023-07-20T01:01:14;5.82;;;3.65;;
44973;SDS011;60981;50.720;11.342;2023-07-20T01:02:16;6.28;;;3.33;;
44973;SDS011;60981;50.720;11.342;2023-07-20T01:03:18;5.40;;;3.70;;
44973;SDS011;60981;50.720;11.342;2023-07-20T01:04:19;5.78;;;3.08;;
44973;SDS011;60981;50.720;11.342;2023-07-20T01:05:22;5.88;;;3.63;;
44973;SDS011;60981;50.720;11.342;2023-07-20T01:06:29;5.07;;;2.90;;
44973;SDS011;60981;50.720;11.342;2023-07-20T01:07:39;6.30;;;2.90;;
44973;SDS011;60981;50.720;11.342;2023-07-20T01:08:50;5.03;;;3.00;;
44973;SDS011;60981;50.720;11.342;2023-07-20T01:10:57;5.75;;;3.50;;
44973;SDS011;60981;50.720;11.342;2023-07-20T01:12:12;5.75;;;3.33;;
44973;SDS011;60981;50.720;11.342;2023-07-20T01:13:15;4.75;;;3.03;;
44973;SDS011;60981;50.720;11.342;2023-07-20T01:14:17;5.93;;;3.40;;
44973;SDS011;60981;50.720;11.342;2023-07-20T01:15:20;6.07;;;3.60;;
44973;SDS011;60981;50.720;11.342;2023-07-20T01:16:22;5.57;;;3.53;;
44973;SDS011;60981;50.720;11.342;2023-07-20T01:17:24;6.40;;;3.47;;
44973;SDS011;60981;50.720;11.342;2023-07-20T01:18:25;4.97;;;3.60;;
44973;SDS011;60981;50.720;11.342;2023-07-20T01:19:27;7.15;;;4.10;;
44973;SDS011;60981;50.720;11.342;2023-07-20T01:20:30;8.00;;;5.53;;
44973;SDS011;60981;50.720;11.342;2023-07-20T01:21:45;8.23;;;5.55;;
44973;SDS011;60981;50.720;11.342;2023-07-20T01:22:57;8.18;;;5.32;;
44973;SDS011;60981;50.720;11.342;2023-07-20T01:28:04;5.30;;;3.50;;
44973;SDS011;60981;50.720;11.342;2023-07-20T01:31:26;4.38;;;2.78;;
44973;SDS011;60981;50.720;11.342;2023-07-20T01:32:29;3.70;;;2.40;;
44973;SDS011;60981;50.720;11.342;2023-07-20T01:33:32;5.63;;;2.85;;
44973;SDS011;60981;50.720;11.342;2023-07-20T01:34:35;4.88;;;2.63;;
44973;SDS011;60981;50.720;11.342;2023-07-20T01:35:37;4.95;;;2.80;;
44973;SDS011;60981;50.720;11.342;2023-07-20T01:36:39;4.20;;;2.33;;
44973;SDS011;60981;50.720;11.342;2023-07-20T01:37:42;5.38;;;2.50;;
44973;SDS011;60981;50.720;11.342;2023-07-20T01:38:45;6.03;;;2.90;;
44973;SDS011;60981;50.720;11.342;2023-07-20T01:39:47;6.45;;;2.67;;
44973;SDS011;60981;50.720;11.342;2023-07-20T01:40:49;4.80;;;2.75;;
44973;SDS011;60981;50.720;11.342;2023-07-20T01:41:51;5.85;;;2.90;;
44973;SDS011;60981;50.720;11.342;2023-07-20T01:42:53;5.15;;;2.80;;
44973;SDS011;60981;50.720;11.342;2023-07-20T01:43:57;6.18;;;2.97;;
44973;SDS011;60981;50.720;11.342;2023-07-20T01:44:59;6.57;;;2.97;;
44973;SDS011;60981;50.720;11.342;2023-07-20T01:46:01;4.65;;;2.90;;
44973;SDS011;60981;50.720;11.342;2023-07-20T01:47:02;5.05;;;2.90;;
44973;SDS011;60981;50.720;11.342;2023-07-20T01:48:05;5.13;;;2.83;;
44973;SDS011;60981;50.720;11.342;2023-07-20T01:49:07;5.00;;;2.97;;
44973;SDS011;60981;50.720;11.342;2023-07-20T01:50:09;4.60;;;3.05;;
44973;SDS011;60981;50.720;11.342;2023-07-20T01:51:10;4.82;;;2.60;;
44973;SDS011;60981;50.720;11.342;2023-07-20T01:52:13;4.07;;;2.65;;
44973;SDS011;60981;50.720;11.342;2023-07-20T01:53:17;5.68;;;2.90;;
44973;SDS011;60981;50.720;11.342;2023-07-20T01:54:19;5.53;;;3.00;;
44973;SDS011;60981;50.720;11.342;2023-07-20T01:55:20;4.65;;;3.17;;
44973;SDS011;60981;50.720;11.342;2023-07-20T01:56:22;5.28;;;3.28;;
44973;SDS011;60981;50.720;11.342;2023-07-20T01:57:24;4.68;;;3.00;;
44973;SDS011;60981;50.720;11.342;2023-07-20T01:58:26;4.70;;;2.78;;
44973;SDS011;60981;50.720;11.342;2023-07-20T01:59:28;6.13;;;3.10;;
44973;SDS011;60981;50.720;11.342;2023-07-20T02:00:29;5.50;;;3.00;;
44973;SDS011;60981;50.720;11.342;2023-07-20T02:01:31;6.37;;;3.20;;
44973;SDS011;60981;50.720;11.342;2023-07-20T02:02:33;4.65;;;2.90;;
44973;SDS011;60981;50.720;11.342;2023-07-20T02:03:34;5.35;;;3.13;;
44973;SDS011;60981;50.720;11.342;2023-07-20T02:04:37;5.85;;;2.90;;
44973;SDS011;60981;50.720;11.342;2023-07-20T02:05:39;5.28;;;2.90;;
44973;SDS011;60981;50.720;11.342;2023-07-20T02:06:40;6.78;;;3.10;;
44973;SDS011;60981;50.720;11.342;2023-07-20T02:07:42;4.70;;;3.30;;
44973;SDS011;60981;50.720;11.342;2023-07-20T02:08:44;4.75;;;3.30;;
44973;SDS011;60981;50.720;11.342;2023-07-20T02:09:46;4.75;;;2.70;;
44973;SDS011;60981;50.720;11.342;2023-07-20T02:10:48;5.85;;;3.00;;
44973;SDS011;60981;50.720;11.342;2023-07-20T02:11:49;4.20;;;2.80;;
44973;SDS011;60981;50.720;11.342;2023-07-20T02:12:51;4.05;;;2.67;;
44973;SDS011;60981;50.720;11.342;2023-07-20T02:13:53;5.40;;;2.70;;
44973;SDS011;60981;50.720;11.342;2023-07-20T02:14:55;5.50;;;2.90;;
44973;SDS011;60981;50.720;11.342;2023-07-20T02:15:57;4.82;;;2.50;;
44973;SDS011;60981;50.720;11.342;2023-07-20T02:16:58;4.88;;;2.70;;
44973;SDS011;60981;50.720;11.342;2023-07-20T02:18:01;5.35;;;2.80;;
44973;SDS011;60981;50.720;11.342;2023-07-20T02:19:04;6.03;;;3.00;;
44973;SDS011;60981;50.720;11.342;2023-07-20T02:20:08;5.13;;;2.60;;
44973;SDS011;60981;50.720;11.342;2023-07-20T02:21:11;4.18;;;2.50;;
44973;SDS011;60981;50.720;11.342;2023-07-20T02:22:13;3.92;;;2.33;;
44973;SDS011;60981;50.720;11.342;2023-07-20T02:23:15;5.57;;;2.85;;
44973;SDS011;60981;50.720;11.342;2023-07-20T02:24:17;5.95;;;2.78;;
44973;SDS011;60981;50.720;11.342;2023-07-20T02:25:18;5.45;;;2.70;;
44973;SDS011;60981;50.720;11.342;2023-07-20T02:26:20;4.82;;;2.78;;
44973;SDS011;60981;50.720;11.342;2023-07-20T02:27:22;4.35;;;2.63;;
44973;SDS011;60981;50.720;11.342;2023-07-20T02:28:24;4.68;;;2.80;;
44973;SDS011;60981;50.720;11.342;2023-07-20T02:29:26;4.82;;;2.85;;
44973;SDS011;60981;50.720;11.342;2023-07-20T02:30:28;4.43;;;2.65;;
44973;SDS011;60981;50.720;11.342;2023-07-20T02:31:30;3.83;;;2.67;;
44973;SDS011;60981;50.720;11.342;2023-07-20T02:32:31;4.90;;;3.00;;
44973;SDS011;60981;50.720;11.342;2023-07-20T02:33:33;5.43;;;3.38;;
44973;SDS011;60981;50.720;11.342;2023-07-20T02:34:35;3.95;;;2.42;;
44973;SDS011;60981;50.720;11.342;2023-07-20T02:35:39;5.72;;;2.80;;
44973;SDS011;60981;50.720;11.342;2023-07-20T02:36:41;5.80;;;2.90;;
44973;SDS011;60981;50.720;11.342;2023-07-20T02:37:44;5.65;;;2.88;;
44973;SDS011;60981;50.720;11.342;2023-07-20T02:38:46;5.50;;;2.80;;
44973;SDS011;60981;50.720;11.342;2023-07-20T02:39:48;6.68;;;3.22;;
44973;SDS011;60981;50.720;11.342;2023-07-20T02:40:49;4.40;;;2.95;;
44973;SDS011;60981;50.720;11.342;2023-07-20T02:41:51;5.18;;;3.10;;
44973;SDS011;60981;50.720;11.342;2023-07-20T02:42:53;5.32;;;2.90;;
44973;SDS011;60981;50.720;11.342;2023-07-20T02:43:55;5.65;;;3.00;;
44973;SDS011;60981;50.720;11.342;2023-07-20T02:44:58;6.70;;;3.00;;
44973;SDS011;60981;50.720;11.342;2023-07-20T02:45:59;5.57;;;3.17;;
44973;SDS011;60981;50.720;11.342;2023-07-20T02:47:01;5.10;;;2.90;;
44973;SDS011;60981;50.720;11.342;2023-07-20T02:48:03;4.45;;;2.78;;
44973;SDS011;60981;50.720;11.342;2023-07-20T02:49:05;5.60;;;3.20;;
44973;SDS011;60981;50.720;11.342;2023-07-20T02:50:07;5.50;;;3.10;;
44973;SDS011;60981;50.720;11.342;2023-07-20T02:51:09;5.13;;;2.95;;
44973;SDS011;60981;50.720;11.342;2023-07-20T02:52:12;5.50;;;3.20;;
44973;SDS011;60981;50.720;11.342;2023-07-20T02:53:14;8.30;;;3.00;;
44973;SDS011;60981;50.720;11.342;2023-07-20T02:54:16;6.10;;;3.00;;
44973;SDS011;60981;50.720;11.342;2023-07-20T02:55:17;5.13;;;3.10;;
44973;SDS011;60981;50.720;11.342;2023-07-20T02:56:19;6.15;;;3.00;;
44973;SDS011;60981;50.720;11.342;2023-07-20T02:57:21;4.90;;;2.88;;
44973;SDS011;60981;50.720;11.342;2023-07-20T02:58:23;5.45;;;3.00;;
44973;SDS011;60981;50.720;11.342;2023-07-20T02:59:25;5.00;;;3.20;;
44973;SDS011;60981;50.720;11.342;2023-07-20T03:00:26;5.53;;;3.10;;
44973;SDS011;60981;50.720;11.342;2023-07-20T03:01:29;5.55;;;3.15;;
44973;SDS011;60981;50.720;11.342;2023-07-20T03:02:31;6.32;;;3.50;;
44973;SDS011;60981;50.720;11.342;2023-07-20T03:03:32;5.05;;;3.40;;
44973;SDS011;60981;50.720;11.342;2023-07-20T03:04:40;5.43;;;3.50;;
44973;SDS011;60981;50.720;11.342;2023-07-20T03:05:42;5.40;;;3.53;;
44973;SDS011;60981;50.720;11.342;2023-07-20T03:06:43;6.82;;;3.65;;
44973;SDS011;60981;50.720;11.342;2023-07-20T03:07:45;6.18;;;3.58;;
44973;SDS011;60981;50.720;11.342;2023-07-20T03:08:47;5.47;;;3.00;;
44973;SDS011;60981;50.720;11.342;2023-07-20T03:09:49;5.30;;;3.20;;
44973;SDS011;60981;50.720;11.342;2023-07-20T03:10:51;5.30;;;3.75;;
44973;SDS011;60981;50.720;11.342;2023-07-20T03:11:53;6.95;;;3.50;;
44973;SDS011;60981;50.720;11.342;2023-07-20T03:12:54;5.75;;;3.33;;
44973;SDS011;60981;50.720;11.342;2023-07-20T03:13:56;5.10;;;3.55;;
44973;SDS011;60981;50.720;11.342;2023-07-20T03:14:58;5.95;;;3.42;;
44973;SDS011;60981;50.720;11.342;2023-07-20T03:15:59;7.73;;;3.90;;
44973;SDS011;60981;50.720;11.342;2023-07-20T03:17:01;6.30;;;3.40;;
44973;SDS011;60981;50.720;11.342;2023-07-20T03:18:02;5.65;;;3.17;;
44973;SDS011;60981;50.720;11.342;2023-07-20T03:19:05;5.20;;;3.40;;
44973;SDS011;60981;50.720;11.342;2023-07-20T03:20:07;5.72;;;3.15;;
44973;SDS011;60981;50.720;11.342;2023-07-20T03:21:11;4.60;;;2.88;;
44973;SDS011;60981;50.720;11.342;2023-07-20T03:22:13;6.25;;;3.10;;
44973;SDS011;60981;50.720;11.342;2023-07-20T03:23:15;6.47;;;3.15;;
44973;SDS011;60981;50.720;11.342;2023-07-20T03:24:18;5.03;;;3.30;;
44973;SDS011;60981;50.720;11.342;2023-07-20T03:25:19;5.45;;;3.10;;
44973;SDS011;60981;50.720;11.342;2023-07-20T03:26:22;5.63;;;3.50;;
44973;SDS011;60981;50.720;11.342;2023-07-20T03:27:24;6.30;;;3.53;;
44973;SDS011;60981;50.720;11.342;2023-07-20T03:28:26;7.35;;;3.50;;
44973;SDS011;60981;50.720;11.342;2023-07-20T03:29:28;5.22;;;3.65;;
44973;SDS011;60981;50.720;11.342;2023-07-20T03:30:29;5.70;;;3.85;;
44973;SDS011;60981;50.720;11.342;2023-07-20T03:31:31;5.57;;;3.80;;
44973;SDS011;60981;50.720;11.342;2023-07-20T03:32:33;7.18;;;3.50;;
44973;SDS011;60981;50.720;11.342;2023-07-20T03:33:35;5.60;;;3.60;;
44973;SDS011;60981;50.720;11.342;2023-07-20T03:34:37;4.80;;;3.50;;
44973;SDS011;60981;50.720;11.342;2023-07-20T03:35:38;7.00;;;3.55;;
44973;SDS011;60981;50.720;11.342;2023-07-20T03:36:40;5.05;;;3.50;;
44973;SDS011;60981;50.720;11.342;2023-07-20T03:37:42;5.57;;;3.58;;
44973;SDS011;60981;50.720;11.342;2023-07-20T03:38:44;6.30;;;3.20;;
44973;SDS011;60981;50.720;11.342;2023-07-20T03:39:46;5.30;;;3.40;;
44973;SDS011;60981;50.720;11.342;2023-07-20T03:40:50;5.03;;;3.30;;
44973;SDS011;60981;50.720;11.342;2023-07-20T03:41:52;5.85;;;3.70;;
44973;SDS011;60981;50.720;11.342;2023-07-20T03:42:53;5.10;;;3.25;;
44973;SDS011;60981;50.720;11.342;2023-07-20T03:43:57;4.20;;;3.00;;
44973;SDS011;60981;50.720;11.342;2023-07-20T03:44:59;4.97;;;2.92;;
44973;SDS011;60981;50.720;11.342;2023-07-20T03:46:00;5.32;;;3.13;;
44973;SDS011;60981;50.720;11.342;2023-07-20T03:47:02;4.40;;;2.97;;
44973;SDS011;60981;50.720;11.342;2023-07-20T03:48:06;5.40;;;2.90;;
44973;SDS011;60981;50.720;11.342;2023-07-20T03:49:08;5.57;;;4.30;;
44973;SDS011;60981;50.720;11.342;2023-07-20T03:50:10;6.80;;;4.57;;
44973;SDS011;60981;50.720;11.342;2023-07-20T03:51:12;6.43;;;4.03;;
44973;SDS011;60981;50.720;11.342;2023-07-20T03:52:14;6.65;;;3.90;;
44973;SDS011;60981;50.720;11.342;2023-07-20T03:53:16;6.13;;;3.40;;
44973;SDS011;60981;50.720;11.342;2023-07-20T03:54:18;6.57;;;3.70;;
44973;SDS011;60981;50.720;11.342;2023-07-20T03:55:20;5.40;;;3.80;;
44973;SDS011;60981;50.720;11.342;2023-07-20T03:56:22;6.22;;;3.40;;
44973;SDS011;60981;50.720;11.342;2023-07-20T03:57:24;5.18;;;3.55;;
44973;SDS011;60981;50.720;11.342;2023-07-20T03:58:26;5.75;;;3.35;;
44973;SDS011;60981;50.720;11.342;2023-07-20T03:59:28;5.57;;;3.30;;
44973;SDS011;60981;50.720;11.342;2023-07-20T04:00:29;4.93;;;3.55;;
44973;SDS011;60981;50.720;11.342;2023-07-20T04:01:31;7.90;;;4.00;;
44973;SDS011;60981;50.720;11.342;2023-07-20T04:02:38;9.35;;;4.68;;
44973;SDS011;60981;50.720;11.342;2023-07-20T04:03:40;8.88;;;4.50;;
44973;SDS011;60981;50.720;11.342;2023-07-20T04:04:43;8.30;;;4.10;;
44973;SDS011;60981;50.720;11.342;2023-07-20T04:05:45;5.47;;;3.55;;
44973;SDS011;60981;50.720;11.342;2023-07-20T04:06:47;5.40;;;3.30;;
44973;SDS011;60981;50.720;11.342;2023-07-20T04:07:49;6.20;;;3.38;;
44973;SDS011;60981;50.720;11.342;2023-07-20T04:08:50;7.55;;;4.15;;
44973;SDS011;60981;50.720;11.342;2023-07-20T04:09:52;8.65;;;3.95;;
44973;SDS011;60981;50.720;11.342;2023-07-20T04:10:54;4.65;;;3.20;;
44973;SDS011;60981;50.720;11.342;2023-07-20T04:11:57;5.82;;;3.30;;
44973;SDS011;60981;50.720;11.342;2023-07-20T04:13:00;6.28;;;3.42;;
44973;SDS011;60981;50.720;11.342;2023-07-20T04:14:02;5.38;;;3.40;;
44973;SDS011;60981;50.720;11.342;2023-07-20T04:15:04;5.97;;;3.58;;
44973;SDS011;60981;50.720;11.342;2023-07-20T04:16:06;7.55;;;3.58;;
44973;SDS011;60981;50.720;11.342;2023-07-20T04:17:08;6.10;;;3.60;;
44973;SDS011;60981;50.720;11.342;2023-07-20T04:18:10;5.75;;;3.08;;
44973;SDS011;60981;50.720;11.342;2023-07-20T04:19:11;5.20;;;3.00;;
44973;SDS011;60981;50.720;11.342;2023-07-20T04:20:13;6.15;;;3.20;;
44973;SDS011;60981;50.720;11.342;2023-07-20T04:21:15;5.53;;;3.30;;
44973;SDS011;60981;50.720;11.342;2023-07-20T04:22:16;6.30;;;3.40;;
44973;SDS011;60981;50.720;11.342;2023-07-20T04:23:18;7.35;;;3.75;;
44973;SDS011;60981;50.720;11.342;2023-07-20T04:24:20;6.63;;;3.65;;
44973;SDS011;60981;50.720;11.342;2023-07-20T04:25:21;5.93;;;3.28;;
44973;SDS011;60981;50.720;11.342;2023-07-20T04:26:23;4.55;;;3.42;;
44973;SDS011;60981;50.720;11.342;2023-07-20T04:27:25;6.43;;;3.75;;
44973;SDS011;60981;50.720;11.342;2023-07-20T04:28:27;4.82;;;2.95;;
44973;SDS011;60981;50.720;11.342;2023-07-20T04:29:28;5.00;;;3.28;;
44973;SDS011;60981;50.720;11.342;2023-07-20T04:30:30;7.45;;;3.78;;
44973;SDS011;60981;50.720;11.342;2023-07-20T04:31:31;7.60;;;3.73;;
44973;SDS011;60981;50.720;11.342;2023-07-20T04:32:34;6.90;;;3.38;;
44973;SDS011;60981;50.720;11.342;2023-07-20T04:33:37;5.15;;;3.13;;
44973;SDS011;60981;50.720;11.342;2023-07-20T04:34:38;6.38;;;3.38;;
44973;SDS011;60981;50.720;11.342;2023-07-20T04:35:44;5.47;;;3.00;;
44973;SDS011;60981;50.720;11.342;2023-07-20T04:36:46;5.07;;;3.15;;
44973;SDS011;60981;50.720;11.342;2023-07-20T04:37:48;5.47;;;3.38;;
44973;SDS011;60981;50.720;11.342;2023-07-20T04:38:49;5.85;;;3.40;;
44973;SDS011;60981;50.720;11.342;2023-07-20T04:39:51;4.40;;;3.17;;
44973;SDS011;60981;50.720;11.342;2023-07-20T04:40:53;5.80;;;3.22;;
44973;SDS011;60981;50.720;11.342;2023-07-20T04:41:55;7.50;;;3.33;;
44973;SDS011;60981;50.720;11.342;2023-07-20T04:42:56;5.78;;;3.30;;
44973;SDS011;60981;50.720;11.342;2023-07-20T04:43:58;4.53;;;3.08;;
44973;SDS011;60981;50.720;11.342;2023-07-20T04:45:00;4.80;;;2.90;;
44973;SDS011;60981;50.720;11.342;2023-07-20T04:46:01;6.47;;;2.97;;
44973;SDS011;60981;50.720;11.342;2023-07-20T04:47:03;5.03;;;3.00;;
44973;SDS011;60981;50.720;11.342;2023-07-20T04:48:23;4.90;;;3.05;;
44973;SDS011;60981;50.720;11.342;2023-07-20T04:49:25;6.80;;;3.10;;
44973;SDS011;60981;50.720;11.342;2023-07-20T04:50:27;6.38;;;3.25;;
44973;SDS011;60981;50.720;11.342;2023-07-20T04:51:28;6.20;;;2.88;;
44973;SDS011;60981;50.720;11.342;2023-07-20T04:52:31;6.95;;;2.85;;
44973;SDS011;60981;50.720;11.342;2023-07-20T04:53:43;6.25;;;2.83;;
44973;SDS011;60981;50.720;11.342;2023-07-20T04:54:45;4.72;;;2.63;;
44973;SDS011;60981;50.720;11.342;2023-07-20T04:55:47;7.82;;;3.25;;
44973;SDS011;60981;50.720;11.342;2023-07-20T04:56:52;5.35;;;3.08;;
44973;SDS011;60981;50.720;11.342;2023-07-20T04:57:54;5.43;;;3.05;;
44973;SDS011;60981;50.720;11.342;2023-07-20T04:58:56;4.55;;;3.05;;
44973;SDS011;60981;50.720;11.342;2023-07-20T04:59:58;6.07;;;3.20;;
44973;SDS011;60981;50.720;11.342;2023-07-20T05:01:00;5.32;;;3.17;;
44973;SDS011;60981;50.720;11.342;2023-07-20T05:02:02;7.05;;;3.50;;
44973;SDS011;60981;50.720;11.342;2023-07-20T05:03:04;6.20;;;3.50;;
44973;SDS011;60981;50.720;11.342;2023-07-20T05:04:07;4.95;;;3.22;;
44973;SDS011;60981;50.720;11.342;2023-07-20T05:05:09;5.65;;;3.38;;
44973;SDS011;60981;50.720;11.342;2023-07-20T05:06:11;6.85;;;3.47;;
44973;SDS011;60981;50.720;11.342;2023-07-20T05:07:14;5.38;;;3.22;;
44973;SDS011;60981;50.720;11.342;2023-07-20T05:08:15;5.45;;;3.53;;
44973;SDS011;60981;50.720;11.342;2023-07-20T05:09:17;8.70;;;3.50;;
44973;SDS011;60981;50.720;11.342;2023-07-20T05:10:19;6.28;;;3.55;;
44973;SDS011;60981;50.720;11.342;2023-07-20T05:11:21;4.63;;;3.40;;
44973;SDS011;60981;50.720;11.342;2023-07-20T05:12:23;5.97;;;3.00;;
44973;SDS011;60981;50.720;11.342;2023-07-20T05:13:25;10.82;;;3.75;;
44973;SDS011;60981;50.720;11.342;2023-07-20T05:14:27;5.40;;;3.53;;
44973;SDS011;60981;50.720;11.342;2023-07-20T05:15:29;5.45;;;3.33;;
44973;SDS011;60981;50.720;11.342;2023-07-20T05:16:31;5.90;;;3.30;;
44973;SDS011;60981;50.720;11.342;2023-07-20T05:17:33;5.97;;;3.78;;
44973;SDS011;60981;50.720;11.342;2023-07-20T05:18:35;4.50;;;2.92;;
44973;SDS011;60981;50.720;11.342;2023-07-20T05:19:37;5.85;;;3.30;;
44973;SDS011;60981;50.720;11.342;2023-07-20T05:20:38;6.63;;;3.38;;
44973;SDS011;60981;50.720;11.342;2023-07-20T05:21:40;5.32;;;3.20;;
44973;SDS011;60981;50.720;11.342;2023-07-20T05:22:42;6.75;;;3.55;;
44973;SDS011;60981;50.720;11.342;2023-07-20T05:23:44;6.50;;;3.35;;
44973;SDS011;60981;50.720;11.342;2023-07-20T05:24:46;7.03;;;3.33;;
44973;SDS011;60981;50.720;11.342;2023-07-20T05:25:57;5.45;;;3.50;;
44973;SDS011;60981;50.720;11.342;2023-07-20T05:26:59;8.30;;;3.45;;
44973;SDS011;60981;50.720;11.342;2023-07-20T05:28:01;4.80;;;3.30;;
44973;SDS011;60981;50.720;11.342;2023-07-20T05:29:02;5.90;;;3.40;;
44973;SDS011;60981;50.720;11.342;2023-07-20T05:30:04;6.35;;;3.38;;
44973;SDS011;60981;50.720;11.342;2023-07-20T05:31:07;5.70;;;3.35;;
44973;SDS011;60981;50.720;11.342;2023-07-20T05:32:08;7.18;;;3.58;;
44973;SDS011;60981;50.720;11.342;2023-07-20T05:33:11;7.70;;;3.58;;
44973;SDS011;60981;50.720;11.342;2023-07-20T05:34:13;6.72;;;3.80;;
44973;SDS011;60981;50.720;11.342;2023-07-20T05:35:14;6.50;;;3.40;;
44973;SDS011;60981;50.720;11.342;2023-07-20T05:36:18;5.43;;;3.45;;
44973;SDS011;60981;50.720;11.342;2023-07-20T05:37:20;6.25;;;3.30;;
44973;SDS011;60981;50.720;11.342;2023-07-20T05:38:22;5.60;;;3.85;;
44973;SDS011;60981;50.720;11.342;2023-07-20T05:39:23;8.57;;;3.95;;
44973;SDS011;60981;50.720;11.342;2023-07-20T05:40:26;6.60;;;3.90;;
44973;SDS011;60981;50.720;11.342;2023-07-20T05:41:28;6.10;;;3.60;;
44973;SDS011;60981;50.720;11.342;2023-07-20T05:42:29;6.82;;;3.60;;
44973;SDS011;60981;50.720;11.342;2023-07-20T05:43:32;6.78;;;3.55;;
44973;SDS011;60981;50.720;11.342;2023-07-20T05:44:33;5.32;;;3.92;;
44973;SDS011;60981;50.720;11.342;2023-07-20T05:45:35;5.53;;;3.70;;
44973;SDS011;60981;50.720;11.342;2023-07-20T05:46:37;8.93;;;3.90;;
44973;SDS011;60981;50.720;11.342;2023-07-20T05:47:55;6.90;;;3.75;;
44973;SDS011;60981;50.720;11.342;2023-07-20T05:48:57;5.87;;;3.57;;
44973;SDS011;60981;50.720;11.342;2023-07-20T05:50:00;5.28;;;3.53;;
44973;SDS011;60981;50.720;11.342;2023-07-20T05:51:02;6.15;;;3.25;;
44973;SDS011;60981;50.720;11.342;2023-07-20T05:52:04;6.38;;;3.88;;
44973;SDS011;60981;50.720;11.342;2023-07-20T05:53:06;8.75;;;4.00;;
44973;SDS011;60981;50.720;11.342;2023-07-20T05:54:08;6.93;;;4.03;;
44973;SDS011;60981;50.720;11.342;2023-07-20T05:55:10;6.85;;;3.70;;
44973;SDS011;60981;50.720;11.342;2023-07-20T05:56:13;6.10;;;3.88;;
44973;SDS011;60981;50.720;11.342;2023-07-20T05:57:16;6.75;;;3.60;;
44973;SDS011;60981;50.720;11.342;2023-07-20T05:58:18;5.18;;;3.55;;
44973;SDS011;60981;50.720;11.342;2023-07-20T05:59:20;5.47;;;3.38;;
44973;SDS011;60981;50.720;11.342;2023-07-20T06:00:22;5.05;;;3.22;;
44973;SDS011;60981;50.720;11.342;2023-07-20T06:01:28;5.78;;;3.17;;
44973;SDS011;60981;50.720;11.342;2023-07-20T06:02:29;5.10;;;3.10;;
44973;SDS011;60981;50.720;11.342;2023-07-20T06:03:31;5.68;;;3.00;;
44973;SDS011;60981;50.720;11.342;2023-07-20T06:04:35;7.38;;;3.22;;
44973;SDS011;60981;50.720;11.342;2023-07-20T06:05:36;4.80;;;2.90;;
44973;SDS011;60981;50.720;11.342;2023-07-20T06:06:38;4.05;;;2.88;;
44973;SDS011;60981;50.720;11.342;2023-07-20T06:07:41;7.55;;;3.20;;
44973;SDS011;60981;50.720;11.342;2023-07-20T06:08:43;6.03;;;3.05;;
44973;SDS011;60981;50.720;11.342;2023-07-20T06:09:45;6.95;;;3.03;;
44973;SDS011;60981;50.720;11.342;2023-07-20T06:10:49;6.43;;;2.80;;
44973;SDS011;60981;50.720;11.342;2023-07-20T06:11:52;6.65;;;2.67;;
44973;SDS011;60981;50.720;11.342;2023-07-20T06:12:53;6.10;;;2.95;;
44973;SDS011;60981;50.720;11.342;2023-07-20T06:13:57;5.10;;;3.10;;
44973;SDS011;60981;50.720;11.342;2023-07-20T06:15:02;5.47;;;2.83;;
44973;SDS011;60981;50.720;11.342;2023-07-20T06:16:04;5.88;;;2.75;;
44973;SDS011;60981;50.720;11.342;2023-07-20T06:17:06;5.93;;;2.90;;
44973;SDS011;60981;50.720;11.342;2023-07-20T06:18:07;5.95;;;3.25;;